createdAt,value
2022-08-08T00:00:51.842Z,16.9
2022-08-08T00:08:49.085Z,16.6
2022-08-08T00:17:02.219Z,16.5
2022-08-08T00:23:06.023Z,16.4
2022-08-08T00:30:20.264Z,16.3
2022-08-08T00:42:32.883Z,16.2
2022-08-08T00:50:31.716Z,16.1
2022-08-08T00:57:39.713Z,15.9
2022-08-08T01:06:27.133Z,15.9
2022-08-08T01:13:23.003Z,15.8
2022-08-08T01:22:32.384Z,15.6
2022-08-08T01:30:33.687Z,15.4
2022-08-08T01:38:12.884Z,15.2
2022-08-08T01:44:28.993Z,15.1
2022-08-08T17:14:06.244Z,32.8
2022-08-08T17:21:41.115Z,32.1
2022-08-08T17:29:33.614Z,31.5
2022-08-08T17:40:38.434Z,30.6
2022-08-08T17:47:09.739Z,29.9
2022-08-08T17:53:37.438Z,29.1
2022-08-08T18:00:47.374Z,28
2022-08-08T18:09:11.910Z,27.3
2022-08-08T18:15:15.157Z,26.8
2022-08-08T18:24:59.043Z,26.3
2022-08-08T18:31:23.427Z,25.9
2022-08-08T18:39:05.737Z,25.5
2022-08-08T18:47:33.664Z,25.1
2022-08-08T18:55:27.924Z,24.8
2022-08-08T19:02:27.097Z,24.4
2022-08-08T19:09:48.622Z,24.1
2022-08-08T19:16:53.063Z,23.9
2022-08-08T19:24:34.059Z,23.6
2022-08-08T19:33:05.754Z,23.3
2022-08-08T19:40:49.807Z,22.9
2022-08-08T19:48:44.540Z,22.7
2022-08-08T19:55:27.455Z,22.6
2022-08-08T20:02:37.516Z,22.4
2022-08-08T20:11:44.213Z,22.3
2022-08-08T20:20:36.067Z,22
2022-08-08T20:27:05.783Z,22
2022-08-08T20:35:57.671Z,21.9
2022-08-08T20:42:47.715Z,21.8
2022-08-08T20:50:27.238Z,21.8
2022-08-08T20:57:51.247Z,21.8
2022-08-08T21:04:34.139Z,21.8
2022-08-08T21:13:11.126Z,21.7
2022-08-08T21:20:22.137Z,21.6
2022-08-08T21:28:06.919Z,21.6
2022-08-08T21:36:36.076Z,21.4
2022-08-08T21:44:08.591Z,21.2
2022-08-08T21:58:04.315Z,20.8
2022-08-08T22:05:23.285Z,20.4
2022-08-08T22:12:34.262Z,20.3
2022-08-08T22:19:08.675Z,20.1
2022-08-08T22:27:22.838Z,20.1
2022-08-08T22:38:24.529Z,20
2022-08-08T22:45:15.852Z,20.1
2022-08-08T22:51:46.332Z,20
2022-08-08T23:01:16.413Z,19.8
2022-08-08T23:09:30.479Z,19.7
2022-08-08T23:19:09.010Z,19.5
2022-08-08T23:25:18.315Z,19.4
2022-08-08T23:31:42.538Z,19.3
2022-08-08T23:40:15.439Z,19
2022-08-08T23:50:06.111Z,18.8
2022-08-08T23:59:16.742Z,18.3
